METAR Data
IDs: Format: Raw Decoded Include TAF

Data at: 0908 UTC 19 Nov 2018

METAR for:KJCT (Junction/Kimble Cnty, TX, US)
Text:KJCT 190851Z AUTO 03006KT 10SM OVC018 08/03 A3018 RMK AO2 SLP204 T00780028 56008
Temperature: 7.8°C ( 46°F)
Dewpoint: 2.8°C ( 37°F) [RH = 71%]
Pressure (altimeter):30.18 inches Hg (1022.1 mb) [Sea level pressure: 1020.4 mb]
Winds:from the NNE (30 degrees) at 7 MPH (6 knots; 3.1 m/s)
Visibility:10 or more sm (16+ km)
Ceiling:1800 feet AGL
Clouds: overcast cloud deck at 1800 feet AGL
QC Flag:automated observation with no human augmentation